sensor_id;sensor_type;location;lat;lon;timestamp;P1;durP1;ratioP1;P2;durP2;ratioP2
14975;SDS011;7584;60.468;25.126;2023-09-18T00:01:46;3.00;;;0.47;;
14975;SDS011;7584;60.468;25.126;2023-09-18T00:04:11;0.83;;;0.40;;
14975;SDS011;7584;60.468;25.126;2023-09-18T00:06:37;3.73;;;0.80;;
14975;SDS011;7584;60.468;25.126;2023-09-18T00:09:02;0.50;;;0.40;;
14975;SDS011;7584;60.468;25.126;2023-09-18T00:11:27;2.80;;;0.67;;
14975;SDS011;7584;60.468;25.126;2023-09-18T00:13:53;3.57;;;0.80;;
14975;SDS011;7584;60.468;25.126;2023-09-18T00:16:18;3.73;;;1.00;;
14975;SDS011;7584;60.468;25.126;2023-09-18T00:18:43;1.90;;;0.57;;
14975;SDS011;7584;60.468;25.126;2023-09-18T00:21:09;3.07;;;0.50;;
14975;SDS011;7584;60.468;25.126;2023-09-18T00:23:35;0.60;;;0.33;;
14975;SDS011;7584;60.468;25.126;2023-09-18T00:26:01;5.03;;;0.70;;
14975;SDS011;7584;60.468;25.126;2023-09-18T00:28:26;0.40;;;0.40;;
14975;SDS011;7584;60.468;25.126;2023-09-18T00:30:51;2.13;;;0.50;;
14975;SDS011;7584;60.468;25.126;2023-09-18T00:33:17;1.30;;;0.60;;
14975;SDS011;7584;60.468;25.126;2023-09-18T00:35:47;3.00;;;0.80;;
14975;SDS011;7584;60.468;25.126;2023-09-18T00:38:13;0.80;;;0.40;;
14975;SDS011;7584;60.468;25.126;2023-09-18T00:40:38;0.83;;;0.50;;
14975;SDS011;7584;60.468;25.126;2023-09-18T00:43:03;0.90;;;0.40;;
14975;SDS011;7584;60.468;25.126;2023-09-18T00:45:29;1.00;;;0.50;;
14975;SDS011;7584;60.468;25.126;2023-09-18T00:47:54;1.97;;;0.70;;
14975;SDS011;7584;60.468;25.126;2023-09-18T00:50:20;0.50;;;0.40;;
14975;SDS011;7584;60.468;25.126;2023-09-18T00:52:46;4.50;;;0.60;;
14975;SDS011;7584;60.468;25.126;2023-09-18T00:55:12;2.33;;;0.50;;
14975;SDS011;7584;60.468;25.126;2023-09-18T00:57:38;1.97;;;0.77;;
14975;SDS011;7584;60.468;25.126;2023-09-18T01:00:03;1.13;;;0.77;;
14975;SDS011;7584;60.468;25.126;2023-09-18T01:02:30;5.03;;;0.40;;
14975;SDS011;7584;60.468;25.126;2023-09-18T01:04:55;2.70;;;0.70;;
14975;SDS011;7584;60.468;25.126;2023-09-18T01:07:21;1.60;;;0.60;;
14975;SDS011;7584;60.468;25.126;2023-09-18T01:09:46;1.87;;;0.53;;
14975;SDS011;7584;60.468;25.126;2023-09-18T01:12:18;1.53;;;0.60;;
14975;SDS011;7584;60.468;25.126;2023-09-18T01:17:26;3.20;;;0.70;;
14975;SDS011;7584;60.468;25.126;2023-09-18T01:19:51;2.83;;;0.43;;
14975;SDS011;7584;60.468;25.126;2023-09-18T01:22:17;3.00;;;0.50;;
14975;SDS011;7584;60.468;25.126;2023-09-18T01:24:46;4.23;;;0.57;;
14975;SDS011;7584;60.468;25.126;2023-09-18T01:27:15;0.60;;;0.50;;
14975;SDS011;7584;60.468;25.126;2023-09-18T01:29:44;1.30;;;0.53;;
14975;SDS011;7584;60.468;25.126;2023-09-18T01:32:09;5.03;;;0.57;;
14975;SDS011;7584;60.468;25.126;2023-09-18T01:34:36;0.57;;;0.50;;
14975;SDS011;7584;60.468;25.126;2023-09-18T01:37:03;3.03;;;0.60;;
14975;SDS011;7584;60.468;25.126;2023-09-18T01:39:29;1.53;;;0.40;;
14975;SDS011;7584;60.468;25.126;2023-09-18T01:41:59;2.20;;;0.60;;
14975;SDS011;7584;60.468;25.126;2023-09-18T01:44:26;2.50;;;0.50;;
14975;SDS011;7584;60.468;25.126;2023-09-18T01:46:52;3.93;;;0.60;;
14975;SDS011;7584;60.468;25.126;2023-09-18T01:49:28;2.80;;;0.60;;
14975;SDS011;7584;60.468;25.126;2023-09-18T01:51:53;3.60;;;0.50;;
14975;SDS011;7584;60.468;25.126;2023-09-18T01:54:18;1.20;;;0.60;;
14975;SDS011;7584;60.468;25.126;2023-09-18T01:56:44;2.33;;;0.40;;
14975;SDS011;7584;60.468;25.126;2023-09-18T01:59:09;0.40;;;0.40;;
14975;SDS011;7584;60.468;25.126;2023-09-18T02:01:34;0.30;;;0.30;;
14975;SDS011;7584;60.468;25.126;2023-09-18T02:04:00;2.53;;;0.67;;
14975;SDS011;7584;60.468;25.126;2023-09-18T02:06:25;0.83;;;0.43;;
14975;SDS011;7584;60.468;25.126;2023-09-18T02:08:50;3.50;;;0.80;;
14975;SDS011;7584;60.468;25.126;2023-09-18T02:11:16;2.30;;;0.50;;
14975;SDS011;7584;60.468;25.126;2023-09-18T02:13:41;5.27;;;0.80;;
14975;SDS011;7584;60.468;25.126;2023-09-18T02:16:07;0.90;;;0.67;;
14975;SDS011;7584;60.468;25.126;2023-09-18T02:18:32;0.83;;;0.60;;
14975;SDS011;7584;60.468;25.126;2023-09-18T02:20:58;3.93;;;0.70;;
14975;SDS011;7584;60.468;25.126;2023-09-18T02:23:23;3.13;;;0.60;;
14975;SDS011;7584;60.468;25.126;2023-09-18T02:25:55;0.87;;;0.60;;
14975;SDS011;7584;60.468;25.126;2023-09-18T02:28:20;4.17;;;0.60;;
14975;SDS011;7584;60.468;25.126;2023-09-18T02:30:45;1.03;;;0.60;;
14975;SDS011;7584;60.468;25.126;2023-09-18T02:33:11;5.73;;;0.77;;
14975;SDS011;7584;60.468;25.126;2023-09-18T02:35:36;2.43;;;0.50;;
14975;SDS011;7584;60.468;25.126;2023-09-18T02:38:01;0.97;;;0.60;;
14975;SDS011;7584;60.468;25.126;2023-09-18T02:40:27;1.47;;;0.60;;
14975;SDS011;7584;60.468;25.126;2023-09-18T02:42:53;1.77;;;0.50;;
14975;SDS011;7584;60.468;25.126;2023-09-18T02:45:18;4.33;;;0.53;;
14975;SDS011;7584;60.468;25.126;2023-09-18T02:47:43;1.20;;;0.50;;
14975;SDS011;7584;60.468;25.126;2023-09-18T02:50:09;3.17;;;0.60;;
14975;SDS011;7584;60.468;25.126;2023-09-18T02:52:36;2.17;;;0.60;;
14975;SDS011;7584;60.468;25.126;2023-09-18T02:55:01;1.53;;;0.60;;
14975;SDS011;7584;60.468;25.126;2023-09-18T02:57:27;5.17;;;0.80;;
14975;SDS011;7584;60.468;25.126;2023-09-18T02:59:52;0.83;;;0.50;;
14975;SDS011;7584;60.468;25.126;2023-09-18T03:02:17;1.37;;;0.70;;
14975;SDS011;7584;60.468;25.126;2023-09-18T03:04:43;1.00;;;0.93;;
14975;SDS011;7584;60.468;25.126;2023-09-18T03:07:08;0.50;;;0.50;;
14975;SDS011;7584;60.468;25.126;2023-09-18T03:09:33;1.20;;;0.53;;
14975;SDS011;7584;60.468;25.126;2023-09-18T03:12:00;2.00;;;0.60;;
14975;SDS011;7584;60.468;25.126;2023-09-18T03:14:25;0.90;;;0.70;;
14975;SDS011;7584;60.468;25.126;2023-09-18T03:16:51;3.37;;;1.60;;
14975;SDS011;7584;60.468;25.126;2023-09-18T03:19:16;1.60;;;0.73;;
14975;SDS011;7584;60.468;25.126;2023-09-18T03:21:41;4.00;;;0.67;;
14975;SDS011;7584;60.468;25.126;2023-09-18T03:24:07;1.37;;;0.80;;
14975;SDS011;7584;60.468;25.126;2023-09-18T03:26:32;1.60;;;0.87;;
14975;SDS011;7584;60.468;25.126;2023-09-18T03:28:57;1.13;;;0.60;;
14975;SDS011;7584;60.468;25.126;2023-09-18T03:31:23;1.67;;;0.60;;
14975;SDS011;7584;60.468;25.126;2023-09-18T03:33:48;1.53;;;0.63;;
14975;SDS011;7584;60.468;25.126;2023-09-18T03:36:13;0.77;;;0.70;;
14975;SDS011;7584;60.468;25.126;2023-09-18T03:38:39;1.63;;;0.67;;
14975;SDS011;7584;60.468;25.126;2023-09-18T03:41:05;4.73;;;0.50;;
14975;SDS011;7584;60.468;25.126;2023-09-18T03:43:30;6.53;;;0.73;;
14975;SDS011;7584;60.468;25.126;2023-09-18T03:46:02;36.10;;;7.10;;
14975;SDS011;7584;60.468;25.126;2023-09-18T03:48:27;24.30;;;5.60;;
14975;SDS011;7584;60.468;25.126;2023-09-18T03:50:53;17.90;;;2.40;;
14975;SDS011;7584;60.468;25.126;2023-09-18T03:53:18;2.10;;;0.80;;
14975;SDS011;7584;60.468;25.126;2023-09-18T03:55:43;2.10;;;0.80;;
14975;SDS011;7584;60.468;25.126;2023-09-18T03:58:09;2.30;;;0.73;;
14975;SDS011;7584;60.468;25.126;2023-09-18T04:00:35;2.50;;;0.77;;
14975;SDS011;7584;60.468;25.126;2023-09-18T04:03:00;1.67;;;0.80;;
14975;SDS011;7584;60.468;25.126;2023-09-18T04:05:26;1.90;;;1.10;;
14975;SDS011;7584;60.468;25.126;2023-09-18T04:07:52;8.43;;;1.30;;
14975;SDS011;7584;60.468;25.126;2023-09-18T04:10:17;5.63;;;1.60;;
14975;SDS011;7584;60.468;25.126;2023-09-18T04:12:48;0.73;;;0.50;;
14975;SDS011;7584;60.468;25.126;2023-09-18T04:15:15;4.57;;;1.00;;
14975;SDS011;7584;60.468;25.126;2023-09-18T04:17:42;2.00;;;1.07;;
14975;SDS011;7584;60.468;25.126;2023-09-18T04:20:07;3.63;;;0.70;;
14975;SDS011;7584;60.468;25.126;2023-09-18T04:22:33;2.53;;;0.80;;
14975;SDS011;7584;60.468;25.126;2023-09-18T04:24:58;4.30;;;0.50;;
14975;SDS011;7584;60.468;25.126;2023-09-18T04:27:23;4.00;;;0.70;;
14975;SDS011;7584;60.468;25.126;2023-09-18T04:29:48;0.80;;;0.57;;
14975;SDS011;7584;60.468;25.126;2023-09-18T04:32:14;2.37;;;0.87;;
14975;SDS011;7584;60.468;25.126;2023-09-18T04:34:39;1.60;;;0.70;;
14975;SDS011;7584;60.468;25.126;2023-09-18T04:37:04;1.07;;;0.50;;
14975;SDS011;7584;60.468;25.126;2023-09-18T04:39:30;1.20;;;0.80;;
14975;SDS011;7584;60.468;25.126;2023-09-18T04:41:55;2.57;;;0.70;;
14975;SDS011;7584;60.468;25.126;2023-09-18T04:44:20;3.57;;;0.90;;
14975;SDS011;7584;60.468;25.126;2023-09-18T04:46:46;1.47;;;0.73;;
14975;SDS011;7584;60.468;25.126;2023-09-18T04:49:11;2.93;;;0.60;;
14975;SDS011;7584;60.468;25.126;2023-09-18T04:51:37;2.27;;;0.83;;
14975;SDS011;7584;60.468;25.126;2023-09-18T04:54:04;1.53;;;0.70;;
14975;SDS011;7584;60.468;25.126;2023-09-18T04:56:29;2.80;;;0.77;;
14975;SDS011;7584;60.468;25.126;2023-09-18T04:58:54;1.93;;;1.10;;
14975;SDS011;7584;60.468;25.126;2023-09-18T05:01:20;2.93;;;0.80;;
14975;SDS011;7584;60.468;25.126;2023-09-18T05:03:45;6.50;;;1.17;;
14975;SDS011;7584;60.468;25.126;2023-09-18T05:06:13;5.73;;;0.80;;
14975;SDS011;7584;60.468;25.126;2023-09-18T05:08:38;3.20;;;1.10;;
14975;SDS011;7584;60.468;25.126;2023-09-18T05:11:04;1.50;;;1.20;;
14975;SDS011;7584;60.468;25.126;2023-09-18T05:13:29;4.27;;;1.20;;
14975;SDS011;7584;60.468;25.126;2023-09-18T05:15:55;3.53;;;1.00;;
14975;SDS011;7584;60.468;25.126;2023-09-18T05:18:20;4.40;;;1.10;;
14975;SDS011;7584;60.468;25.126;2023-09-18T05:20:46;6.00;;;1.07;;
14975;SDS011;7584;60.468;25.126;2023-09-18T05:23:12;2.27;;;1.17;;
14975;SDS011;7584;60.468;25.126;2023-09-18T05:25:37;2.60;;;1.30;;
14975;SDS011;7584;60.468;25.126;2023-09-18T05:28:03;2.83;;;0.97;;
14975;SDS011;7584;60.468;25.126;2023-09-18T05:30:31;1.40;;;1.00;;
14975;SDS011;7584;60.468;25.126;2023-09-18T05:32:59;2.60;;;1.13;;
14975;SDS011;7584;60.468;25.126;2023-09-18T05:35:34;3.70;;;1.63;;
14975;SDS011;7584;60.468;25.126;2023-09-18T05:38:01;2.77;;;1.60;;
14975;SDS011;7584;60.468;25.126;2023-09-18T05:40:27;5.03;;;1.67;;
14975;SDS011;7584;60.468;25.126;2023-09-18T05:42:53;4.37;;;1.40;;
14975;SDS011;7584;60.468;25.126;2023-09-18T05:45:18;2.87;;;1.70;;
14975;SDS011;7584;60.468;25.126;2023-09-18T05:47:44;3.43;;;2.30;;
14975;SDS011;7584;60.468;25.126;2023-09-18T05:50:09;5.10;;;2.30;;
14975;SDS011;7584;60.468;25.126;2023-09-18T05:52:39;5.00;;;1.97;;
14975;SDS011;7584;60.468;25.126;2023-09-18T05:55:05;3.37;;;2.20;;
14975;SDS011;7584;60.468;25.126;2023-09-18T05:57:32;4.00;;;1.67;;
14975;SDS011;7584;60.468;25.126;2023-09-18T05:59:57;3.50;;;2.30;;
14975;SDS011;7584;60.468;25.126;2023-09-18T06:02:23;7.07;;;1.97;;
14975;SDS011;7584;60.468;25.126;2023-09-18T06:04:50;8.17;;;2.50;;
14975;SDS011;7584;60.468;25.126;2023-09-18T06:07:19;6.10;;;2.97;;
14975;SDS011;7584;60.468;25.126;2023-09-18T06:09:44;5.07;;;2.30;;
14975;SDS011;7584;60.468;25.126;2023-09-18T06:12:09;5.07;;;2.27;;
14975;SDS011;7584;60.468;25.126;2023-09-18T06:14:35;6.53;;;2.10;;
14975;SDS011;7584;60.468;25.126;2023-09-18T06:17:02;6.90;;;2.17;;
14975;SDS011;7584;60.468;25.126;2023-09-18T06:19:28;5.33;;;2.10;;
14975;SDS011;7584;60.468;25.126;2023-09-18T06:21:53;7.87;;;2.00;;
14975;SDS011;7584;60.468;25.126;2023-09-18T06:24:18;5.90;;;1.87;;
14975;SDS011;7584;60.468;25.126;2023-09-18T06:26:44;3.10;;;2.20;;
14975;SDS011;7584;60.468;25.126;2023-09-18T06:29:09;5.90;;;3.10;;
14975;SDS011;7584;60.468;25.126;2023-09-18T06:31:35;2.60;;;2.40;;
14975;SDS011;7584;60.468;25.126;2023-09-18T06:34:00;2.97;;;2.10;;
14975;SDS011;7584;60.468;25.126;2023-09-18T06:36:25;1.67;;;1.53;;
14975;SDS011;7584;60.468;25.126;2023-09-18T06:38:51;3.20;;;1.10;;
14975;SDS011;7584;60.468;25.126;2023-09-18T06:41:16;1.77;;;1.03;;
14975;SDS011;7584;60.468;25.126;2023-09-18T06:43:41;3.00;;;1.00;;
14975;SDS011;7584;60.468;25.126;2023-09-18T06:46:07;2.93;;;0.77;;
14975;SDS011;7584;60.468;25.126;2023-09-18T06:48:32;2.10;;;0.90;;
14975;SDS011;7584;60.468;25.126;2023-09-18T06:50:58;1.83;;;1.10;;
14975;SDS011;7584;60.468;25.126;2023-09-18T06:53:25;1.40;;;0.90;;
14975;SDS011;7584;60.468;25.126;2023-09-18T06:55:51;2.55;;;0.77;;
14975;SDS011;7584;60.468;25.126;2023-09-18T06:58:17;1.85;;;0.70;;
14975;SDS011;7584;60.468;25.126;2023-09-18T07:00:42;3.53;;;0.70;;
14975;SDS011;7584;60.468;25.126;2023-09-18T07:03:07;2.53;;;0.90;;
14975;SDS011;7584;60.468;25.126;2023-09-18T07:05:34;3.17;;;0.75;;
14975;SDS011;7584;60.468;25.126;2023-09-18T07:08:00;2.05;;;0.47;;
14975;SDS011;7584;60.468;25.126;2023-09-18T07:10:25;3.15;;;0.60;;
14975;SDS011;7584;60.468;25.126;2023-09-18T07:12:51;0.80;;;0.50;;
14975;SDS011;7584;60.468;25.126;2023-09-18T07:15:17;1.48;;;0.57;;
14975;SDS011;7584;60.468;25.126;2023-09-18T07:17:42;4.40;;;0.95;;
14975;SDS011;7584;60.468;25.126;2023-09-18T07:20:07;3.42;;;0.50;;
14975;SDS011;7584;60.468;25.126;2023-09-18T07:22:38;1.73;;;0.57;;
14975;SDS011;7584;60.468;25.126;2023-09-18T07:25:04;0.80;;;0.50;;
14975;SDS011;7584;60.468;25.126;2023-09-18T07:27:29;2.00;;;0.57;;
14975;SDS011;7584;60.468;25.126;2023-09-18T07:29:55;2.90;;;0.70;;
14975;SDS011;7584;60.468;25.126;2023-09-18T07:32:21;2.88;;;0.70;;
14975;SDS011;7584;60.468;25.126;2023-09-18T07:34:46;3.22;;;0.60;;
14975;SDS011;7584;60.468;25.126;2023-09-18T07:37:12;1.80;;;0.47;;
14975;SDS011;7584;60.468;25.126;2023-09-18T07:39:37;3.95;;;0.60;;
14975;SDS011;7584;60.468;25.126;2023-09-18T07:42:07;1.00;;;0.57;;
14975;SDS011;7584;60.468;25.126;2023-09-18T07:44:32;0.90;;;0.40;;
14975;SDS011;7584;60.468;25.126;2023-09-18T07:46:58;0.90;;;0.30;;
14975;SDS011;7584;60.468;25.126;2023-09-18T07:49:23;1.58;;;0.22;;
14975;SDS011;7584;60.468;25.126;2023-09-18T07:51:48;1.17;;;0.30;;
14975;SDS011;7584;60.468;25.126;2023-09-18T07:54:14;0.47;;;0.32;;
14975;SDS011;7584;60.468;25.126;2023-09-18T07:56:40;1.27;;;0.40;;
14975;SDS011;7584;60.468;25.126;2023-09-18T07:59:05;0.95;;;0.40;;
14975;SDS011;7584;60.468;25.126;2023-09-18T08:01:30;0.60;;;0.30;;
14975;SDS011;7584;60.468;25.126;2023-09-18T08:03:56;0.90;;;0.22;;
14975;SDS011;7584;60.468;25.126;2023-09-18T08:06:24;1.17;;;0.40;;
14975;SDS011;7584;60.468;25.126;2023-09-18T08:08:51;0.75;;;0.30;;
14975;SDS011;7584;60.468;25.126;2023-09-18T08:11:16;1.33;;;0.25;;
14975;SDS011;7584;60.468;25.126;2023-09-18T08:13:42;0.28;;;0.17;;
14975;SDS011;7584;60.468;25.126;2023-09-18T08:16:07;1.05;;;0.45;;
14975;SDS011;7584;60.468;25.126;2023-09-18T08:18:33;0.57;;;0.40;;
14975;SDS011;7584;60.468;25.126;2023-09-18T08:20:58;0.88;;;0.30;;
14975;SDS011;7584;60.468;25.126;2023-09-18T08:23:24;3.50;;;0.30;;
14975;SDS011;7584;60.468;25.126;2023-09-18T08:25:49;0.47;;;0.30;;
14975;SDS011;7584;60.468;25.126;2023-09-18T08:28:16;2.08;;;0.30;;
14975;SDS011;7584;60.468;25.126;2023-09-18T08:30:41;0.63;;;0.30;;
14975;SDS011;7584;60.468;25.126;2023-09-18T08:33:12;0.75;;;0.35;;
14975;SDS011;7584;60.468;25.126;2023-09-18T08:35:37;0.93;;;0.38;;
14975;SDS011;7584;60.468;25.126;2023-09-18T08:38:04;1.77;;;0.30;;
14975;SDS011;7584;60.468;25.126;2023-09-18T08:40:30;0.47;;;0.30;;
14975;SDS011;7584;60.468;25.126;2023-09-18T08:42:55;0.60;;;0.20;;
14975;SDS011;7584;60.468;25.126;2023-09-18T08:45:55;1.42;;;0.40;;
14975;SDS011;7584;60.468;25.126;2023-09-18T08:48:13;0.40;;;0.30;;
14975;SDS011;7584;60.468;25.126;2023-09-18T08:50:38;2.22;;;0.20;;
14975;SDS011;7584;60.468;25.126;2023-09-18T08:53:04;0.85;;;0.20;;
14975;SDS011;7584;60.468;25.126;2023-09-18T08:55:29;1.75;;;0.38;;
14975;SDS011;7584;60.468;25.126;2023-09-18T08:57:55;0.63;;;0.30;;
14975;SDS011;7584;60.468;25.126;2023-09-18T09:00:23;1.33;;;0.60;;
14975;SDS011;7584;60.468;25.126;2023-09-18T09:02:48;0.85;;;0.28;;
14975;SDS011;7584;60.468;25.126;2023-09-18T09:05:16;0.40;;;0.30;;
14975;SDS011;7584;60.468;25.126;2023-09-18T09:07:41;0.90;;;0.40;;
14975;SDS011;7584;60.468;25.126;2023-09-18T09:10:06;0.40;;;0.25;;
14975;SDS011;7584;60.468;25.126;2023-09-18T09:15:16;1.27;;;0.47;;
14975;SDS011;7584;60.468;25.126;2023-09-18T09:17:42;1.38;;;0.30;;
14975;SDS011;7584;60.468;25.126;2023-09-18T09:20:12;1.85;;;0.30;;
14975;SDS011;7584;60.468;25.126;2023-09-18T09:22:38;2.80;;;0.40;;
14975;SDS011;7584;60.468;25.126;2023-09-18T09:25:09;0.77;;;0.40;;
14975;SDS011;7584;60.468;25.126;2023-09-18T09:27:46;1.05;;;0.35;;
14975;SDS011;7584;60.468;25.126;2023-09-18T09:30:12;1.48;;;0.35;;
14975;SDS011;7584;60.468;25.126;2023-09-18T09:32:43;0.40;;;0.30;;
14975;SDS011;7584;60.468;25.126;2023-09-18T09:35:18;0.85;;;0.50;;
14975;SDS011;7584;60.468;25.126;2023-09-18T09:37:44;1.02;;;0.30;;
14975;SDS011;7584;60.468;25.126;2023-09-18T09:40:09;1.35;;;0.40;;
14975;SDS011;7584;60.468;25.126;2023-09-18T09:42:40;0.63;;;0.35;;
14975;SDS011;7584;60.468;25.126;2023-09-18T09:45:10;0.30;;;0.17;;
14975;SDS011;7584;60.468;25.126;2023-09-18T09:47:37;0.43;;;0.20;;
14975;SDS011;7584;60.468;25.126;2023-09-18T09:50:06;0.32;;;0.22;;
14975;SDS011;7584;60.468;25.126;2023-09-18T09:52:33;0.98;;;0.38;;
14975;SDS011;7584;60.468;25.126;2023-09-18T09:54:58;0.60;;;0.20;;
14975;SDS011;7584;60.468;25.126;2023-09-18T09:57:23;1.20;;;0.25;;
14975;SDS011;7584;60.468;25.126;2023-09-18T09:59:49;1.65;;;0.30;;
14975;SDS011;7584;60.468;25.126;2023-09-18T10:02:14;0.95;;;0.30;;
14975;SDS011;7584;60.468;25.126;2023-09-18T10:04:44;2.08;;;0.30;;
14975;SDS011;7584;60.468;25.126;2023-09-18T10:07:13;0.80;;;0.30;;
14975;SDS011;7584;60.468;25.126;2023-09-18T10:09:41;1.90;;;0.30;;
14975;SDS011;7584;60.468;25.126;2023-09-18T10:12:10;0.98;;;0.20;;
14975;SDS011;7584;60.468;25.126;2023-09-18T10:14:35;0.50;;;0.20;;
14975;SDS011;7584;60.468;25.126;2023-09-18T10:17:04;1.15;;;0.30;;
14975;SDS011;7584;60.468;25.126;2023-09-18T10:22:38;1.77;;;0.40;;
14975;SDS011;7584;60.468;25.126;2023-09-18T10:25:08;0.43;;;0.30;;
14975;SDS011;7584;60.468;25.126;2023-09-18T10:27:35;0.63;;;0.30;;
14975;SDS011;7584;60.468;25.126;2023-09-18T10:30:03;1.08;;;0.30;;
14975;SDS011;7584;60.468;25.126;2023-09-18T10:32:30;1.50;;;0.55;;
14975;SDS011;7584;60.468;25.126;2023-09-18T10:34:57;2.08;;;0.28;;
14975;SDS011;7584;60.468;25.126;2023-09-18T10:37:25;1.85;;;0.50;;
14975;SDS011;7584;60.468;25.126;2023-09-18T10:39:52;0.52;;;0.30;;
14975;SDS011;7584;60.468;25.126;2023-09-18T10:42:18;0.63;;;0.22;;
14975;SDS011;7584;60.468;25.126;2023-09-18T10:44:43;2.05;;;0.20;;
14975;SDS011;7584;60.468;25.126;2023-09-18T10:47:10;0.57;;;0.30;;
14975;SDS011;7584;60.468;25.126;2023-09-18T10:49:36;2.00;;;0.30;;
14975;SDS011;7584;60.468;25.126;2023-09-18T10:52:01;1.63;;;0.20;;
14975;SDS011;7584;60.468;25.126;2023-09-18T10:54:29;1.27;;;0.30;;
14975;SDS011;7584;60.468;25.126;2023-09-18T10:56:55;0.77;;;0.20;;
14975;SDS011;7584;60.468;25.126;2023-09-18T10:59:21;0.45;;;0.30;;
14975;SDS011;7584;60.468;25.126;2023-09-18T11:01:46;1.17;;;0.28;;
14975;SDS011;7584;60.468;25.126;2023-09-18T11:04:13;0.65;;;0.50;;
14975;SDS011;7584;60.468;25.126;2023-09-18T11:09:24;0.70;;;0.35;;
14975;SDS011;7584;60.468;25.126;2023-09-18T11:11:52;2.10;;;0.30;;
14975;SDS011;7584;60.468;25.126;2023-09-18T11:14:21;1.55;;;0.22;;
14975;SDS011;7584;60.468;25.126;2023-09-18T11:16:47;0.88;;;0.20;;
14975;SDS011;7584;60.468;25.126;2023-09-18T11:19:17;0.80;;;0.30;;
14975;SDS011;7584;60.468;25.126;2023-09-18T11:21:43;0.45;;;0.20;;
14975;SDS011;7584;60.468;25.126;2023-09-18T11:24:18;0.50;;;0.40;;
14975;SDS011;7584;60.468;25.126;2023-09-18T11:26:44;0.55;;;0.30;;
14975;SDS011;7584;60.468;25.126;2023-09-18T11:29:10;0.80;;;0.30;;
14975;SDS011;7584;60.468;25.126;2023-09-18T11:31:43;0.73;;;0.20;;
14975;SDS011;7584;60.468;25.126;2023-09-18T11:34:12;1.42;;;0.30;;
14975;SDS011;7584;60.468;25.126;2023-09-18T11:36:37;1.65;;;0.40;;
14975;SDS011;7584;60.468;25.126;2023-09-18T11:39:03;1.50;;;0.30;;
14975;SDS011;7584;60.468;25.126;2023-09-18T11:41:29;1.98;;;0.40;;
14975;SDS011;7584;60.468;25.126;2023-09-18T11:46:35;0.57;;;0.30;;
14975;SDS011;7584;60.468;25.126;2023-09-18T11:49:03;1.70;;;0.35;;
14975;SDS011;7584;60.468;25.126;2023-09-18T11:51:30;0.60;;;0.30;;
14975;SDS011;7584;60.468;25.126;2023-09-18T11:53:56;0.68;;;0.30;;
14975;SDS011;7584;60.468;25.126;2023-09-18T11:56:22;0.40;;;0.40;;
14975;SDS011;7584;60.468;25.126;2023-09-18T11:58:48;0.50;;;0.30;;
14975;SDS011;7584;60.468;25.126;2023-09-18T12:01:14;0.40;;;0.28;;
14975;SDS011;7584;60.468;25.126;2023-09-18T12:03:40;0.63;;;0.20;;
14975;SDS011;7584;60.468;25.126;2023-09-18T12:06:06;2.30;;;0.40;;
14975;SDS011;7584;60.468;25.126;2023-09-18T12:08:33;0.40;;;0.30;;
14975;SDS011;7584;60.468;25.126;2023-09-18T12:10:59;0.60;;;0.40;;
14975;SDS011;7584;60.468;25.126;2023-09-18T12:13:24;1.25;;;0.40;;
14975;SDS011;7584;60.468;25.126;2023-09-18T12:15:52;2.20;;;0.40;;
14975;SDS011;7584;60.468;25.126;2023-09-18T12:18:21;2.08;;;0.40;;
14975;SDS011;7584;60.468;25.126;2023-09-18T12:20:48;0.60;;;0.35;;
14975;SDS011;7584;60.468;25.126;2023-09-18T12:23:14;0.32;;;0.22;;
14975;SDS011;7584;60.468;25.126;2023-09-18T12:25:39;0.93;;;0.30;;
14975;SDS011;7584;60.468;25.126;2023-09-18T12:28:08;0.50;;;0.30;;
14975;SDS011;7584;60.468;25.126;2023-09-18T12:30:33;1.45;;;0.32;;
14975;SDS011;7584;60.468;25.126;2023-09-18T12:32:59;2.15;;;0.50;;
14975;SDS011;7584;60.468;25.126;2023-09-18T12:35:29;0.60;;;0.30;;
14975;SDS011;7584;60.468;25.126;2023-09-18T12:37:55;1.10;;;0.45;;
14975;SDS011;7584;60.468;25.126;2023-09-18T12:40:21;1.80;;;0.50;;
14975;SDS011;7584;60.468;25.126;2023-09-18T12:42:47;1.65;;;0.57;;
14975;SDS011;7584;60.468;25.126;2023-09-18T12:45:12;0.40;;;0.40;;
14975;SDS011;7584;60.468;25.126;2023-09-18T12:47:38;2.67;;;0.60;;
14975;SDS011;7584;60.468;25.126;2023-09-18T12:50:05;0.70;;;0.40;;
14975;SDS011;7584;60.468;25.126;2023-09-18T12:52:31;2.47;;;0.57;;
14975;SDS011;7584;60.468;25.126;2023-09-18T12:54:58;1.17;;;0.40;;
14975;SDS011;7584;60.468;25.126;2023-09-18T12:57:25;0.45;;;0.20;;
14975;SDS011;7584;60.468;25.126;2023-09-18T12:59:50;1.35;;;0.50;;
14975;SDS011;7584;60.468;25.126;2023-09-18T13:02:17;0.68;;;0.40;;
14975;SDS011;7584;60.468;25.126;2023-09-18T13:04:50;0.70;;;0.50;;
14975;SDS011;7584;60.468;25.126;2023-09-18T13:07:16;0.68;;;0.20;;
14975;SDS011;7584;60.468;25.126;2023-09-18T13:09:42;1.02;;;0.40;;
14975;SDS011;7584;60.468;25.126;2023-09-18T13:12:08;1.13;;;0.30;;
14975;SDS011;7584;60.468;25.126;2023-09-18T13:17:17;2.58;;;0.60;;
14975;SDS011;7584;60.468;25.126;2023-09-18T13:19:42;0.52;;;0.30;;
14975;SDS011;7584;60.468;25.126;2023-09-18T13:22:08;0.77;;;0.40;;
14975;SDS011;7584;60.468;25.126;2023-09-18T13:24:33;0.50;;;0.40;;
14975;SDS011;7584;60.468;25.126;2023-09-18T13:26:59;0.70;;;0.30;;
14975;SDS011;7584;60.468;25.126;2023-09-18T13:29:25;0.43;;;0.40;;
14975;SDS011;7584;60.468;25.126;2023-09-18T13:31:51;0.70;;;0.30;;
14975;SDS011;7584;60.468;25.126;2023-09-18T13:34:16;1.27;;;0.30;;
14975;SDS011;7584;60.468;25.126;2023-09-18T13:36:46;0.60;;;0.40;;
14975;SDS011;7584;60.468;25.126;2023-09-18T13:39:12;1.00;;;0.50;;
14975;SDS011;7584;60.468;25.126;2023-09-18T13:41:38;1.52;;;0.55;;
14975;SDS011;7584;60.468;25.126;2023-09-18T13:44:03;0.68;;;0.45;;
14975;SDS011;7584;60.468;25.126;2023-09-18T13:46:29;0.82;;;0.40;;
14975;SDS011;7584;60.468;25.126;2023-09-18T13:48:54;1.63;;;0.93;;
14975;SDS011;7584;60.468;25.126;2023-09-18T13:51:20;1.33;;;0.30;;
14975;SDS011;7584;60.468;25.126;2023-09-18T13:53:45;1.48;;;0.35;;
14975;SDS011;7584;60.468;25.126;2023-09-18T13:56:12;0.52;;;0.40;;
14975;SDS011;7584;60.468;25.126;2023-09-18T13:58:37;1.50;;;0.40;;
14975;SDS011;7584;60.468;25.126;2023-09-18T14:01:06;0.60;;;0.40;;
14975;SDS011;7584;60.468;25.126;2023-09-18T14:03:32;2.38;;;0.47;;
14975;SDS011;7584;60.468;25.126;2023-09-18T14:05:57;3.88;;;0.60;;
14975;SDS011;7584;60.468;25.126;2023-09-18T14:08:23;1.13;;;0.57;;
14975;SDS011;7584;60.468;25.126;2023-09-18T14:10:48;1.55;;;0.40;;
14975;SDS011;7584;60.468;25.126;2023-09-18T14:13:13;1.98;;;0.35;;
14975;SDS011;7584;60.468;25.126;2023-09-18T14:15:39;1.67;;;0.40;;
14975;SDS011;7584;60.468;25.126;2023-09-18T14:18:04;0.73;;;0.38;;
14975;SDS011;7584;60.468;25.126;2023-09-18T14:20:29;2.20;;;0.60;;
14975;SDS011;7584;60.468;25.126;2023-09-18T14:22:55;0.55;;;0.32;;
14975;SDS011;7584;60.468;25.126;2023-09-18T14:25:20;1.13;;;0.50;;
14975;SDS011;7584;60.468;25.126;2023-09-18T14:27:47;1.63;;;0.43;;
14975;SDS011;7584;60.468;25.126;2023-09-18T14:30:12;1.50;;;0.28;;
14975;SDS011;7584;60.468;25.126;2023-09-18T14:32:38;0.70;;;0.50;;
14975;SDS011;7584;60.468;25.126;2023-09-18T14:35:04;2.05;;;0.63;;
14975;SDS011;7584;60.468;25.126;2023-09-18T14:37:33;0.77;;;0.40;;
14975;SDS011;7584;60.468;25.126;2023-09-18T14:39:58;1.58;;;0.50;;
14975;SDS011;7584;60.468;25.126;2023-09-18T14:42:23;0.40;;;0.35;;
14975;SDS011;7584;60.468;25.126;2023-09-18T14:44:49;1.67;;;0.40;;
14975;SDS011;7584;60.468;25.126;2023-09-18T14:47:15;0.60;;;0.43;;
14975;SDS011;7584;60.468;25.126;2023-09-18T14:49:41;1.35;;;0.30;;
14975;SDS011;7584;60.468;25.126;2023-09-18T14:52:08;1.80;;;0.40;;
14975;SDS011;7584;60.468;25.126;2023-09-18T14:54:33;0.55;;;0.40;;
14975;SDS011;7584;60.468;25.126;2023-09-18T14:56:59;1.02;;;0.30;;
14975;SDS011;7584;60.468;25.126;2023-09-18T14:59:26;3.38;;;0.30;;